createdAt,value
2023-05-06T00:00:42.923Z,100113.34
2023-05-06T00:03:45.849Z,100111.28
2023-05-06T00:06:48.961Z,100110.53
2023-05-06T00:09:51.739Z,100111.84
2023-05-06T00:12:53.590Z,100118.53
2023-05-06T00:15:56.787Z,100114.63
2023-05-06T00:18:58.918Z,100099.78
2023-05-06T00:22:00.807Z,100109.44
2023-05-06T00:25:03.973Z,100115.00
2023-05-06T00:28:05.697Z,100124.22
2023-05-06T00:31:09.764Z,100117.09
2023-05-06T00:34:11.553Z,100116.72
2023-05-06T00:37:13.368Z,100130.00
2023-05-06T00:40:15.710Z,100112.34
2023-05-06T00:43:17.626Z,100131.50
2023-05-06T00:46:20.953Z,100110.66
2023-05-06T00:49:23.927Z,100125.56
2023-05-06T00:52:26.237Z,100125.97
2023-05-06T00:55:28.120Z,100124.38
2023-05-06T00:58:31.232Z,100111.13
2023-05-06T01:01:34.509Z,100116.72
2023-05-06T01:04:36.569Z,100112.41
2023-05-06T01:07:46.464Z,100122.50
2023-05-06T01:10:53.735Z,100121.91
2023-05-06T01:14:01.493Z,100116.44
2023-05-06T01:17:08.041Z,100112.28
2023-05-06T01:20:15.369Z,100109.25
2023-05-06T01:23:19.032Z,100104.25
2023-05-06T01:26:22.357Z,100106.22
2023-05-06T01:29:24.314Z,100106.28
2023-05-06T01:32:40.489Z,100066.66
2023-05-06T01:35:55.007Z,100083.25
2023-05-06T01:39:07.760Z,100094.53
2023-05-06T01:42:13.855Z,100098.50
2023-05-06T01:45:17.172Z,100102.13
2023-05-06T01:48:20.293Z,100089.53
2023-05-06T01:51:23.045Z,100096.63
2023-05-06T01:54:26.203Z,100093.88
2023-05-06T01:57:28.690Z,100089.78
2023-05-06T02:00:30.797Z,100082.09
2023-05-06T02:03:32.675Z,100081.16
2023-05-06T02:06:35.449Z,100084.16
2023-05-06T02:09:38.723Z,100094.81
2023-05-06T02:12:41.417Z,100086.66
2023-05-06T02:15:43.373Z,100097.75
2023-05-06T02:18:45.884Z,100090.84
2023-05-06T02:21:47.720Z,100104.44
2023-05-06T02:24:51.669Z,100105.16
2023-05-06T02:27:53.519Z,100109.47
2023-05-06T02:30:56.646Z,100100.84
2023-05-06T02:33:58.437Z,100108.59
2023-05-06T02:37:00.278Z,100102.88
2023-05-06T02:40:04.810Z,100105.16
2023-05-06T02:43:07.270Z,100100.16
2023-05-06T02:46:09.145Z,100104.63
2023-05-06T02:49:11.256Z,100105.81
2023-05-06T02:52:13.126Z,100116.41
2023-05-06T02:55:16.682Z,100114.81
2023-05-06T02:58:18.519Z,100105.66
2023-05-06T03:01:21.386Z,100117.78
2023-05-06T03:04:23.263Z,100114.81
2023-05-06T03:07:25.354Z,100103.63
2023-05-06T03:10:28.575Z,100111.78
2023-05-06T03:13:30.393Z,100088.59
2023-05-06T03:16:33.358Z,100102.22
2023-05-06T03:19:35.135Z,100114.06
2023-05-06T03:22:37.005Z,100076.19
2023-05-06T03:25:41.064Z,100083.00
2023-05-06T03:28:44.703Z,100094.91
2023-05-06T03:31:49.504Z,100079.16
2023-05-06T03:34:51.345Z,100077.13
2023-05-06T03:37:54.052Z,100081.13
2023-05-06T03:40:57.270Z,100084.84
2023-05-06T03:43:59.050Z,100082.41
2023-05-06T03:47:01.070Z,100056.81
2023-05-06T03:50:03.001Z,100093.44
2023-05-06T03:53:05.580Z,100090.53
2023-05-06T03:56:08.976Z,100100.16
2023-05-06T03:59:11.268Z,100102.50
2023-05-06T04:02:14.262Z,100095.94
2023-05-06T04:05:17.317Z,100116.50
2023-05-06T04:08:19.138Z,100110.91
2023-05-06T04:11:22.360Z,100112.69
2023-05-06T04:14:24.213Z,100117.91
2023-05-06T04:17:26.120Z,100117.19
2023-05-06T04:20:28.160Z,100118.84
2023-05-06T04:23:29.937Z,100117.75
2023-05-06T04:26:33.639Z,100113.97
2023-05-06T04:29:36.018Z,100112.28
2023-05-06T04:32:38.741Z,100110.94
2023-05-06T04:35:41.228Z,100118.78
2023-05-06T04:38:42.998Z,100102.75
2023-05-06T04:41:46.420Z,100113.97
2023-05-06T04:44:48.920Z,100116.66
2023-05-06T04:47:52.432Z,100105.16
2023-05-06T04:50:54.251Z,100115.47
2023-05-06T04:53:57.408Z,100135.84
2023-05-06T04:57:01.034Z,100145.00
2023-05-06T05:00:03.612Z,100145.63
2023-05-06T05:03:05.561Z,100133.22
2023-05-06T05:06:07.787Z,100155.28
2023-05-06T05:09:10.725Z,100145.13
2023-05-06T05:12:13.945Z,100153.94
2023-05-06T05:15:15.804Z,100116.69
2023-05-06T05:18:18.794Z,100111.00
2023-05-06T05:21:21.123Z,100141.94
2023-05-06T05:24:23.896Z,100124.41
2023-05-06T05:27:27.483Z,100139.19
2023-05-06T05:30:29.928Z,100139.59
2023-05-06T05:33:31.901Z,100093.88
2023-05-06T05:36:33.750Z,100134.44
2023-05-06T05:39:35.915Z,100109.31
2023-05-06T05:42:39.467Z,100141.13
2023-05-06T05:45:41.395Z,100137.63
2023-05-06T05:48:43.837Z,100139.97
2023-05-06T05:51:45.735Z,100139.31
2023-05-06T05:54:47.732Z,100140.41
2023-05-06T05:57:51.211Z,100138.00
2023-05-06T06:00:53.017Z,100136.88
2023-05-06T06:03:56.603Z,100121.50
2023-05-06T06:06:58.794Z,100129.22
2023-05-06T06:10:00.858Z,100128.84
2023-05-06T06:13:03.997Z,100133.19
2023-05-06T06:16:06.477Z,100128.91
2023-05-06T06:19:09.128Z,100131.31
2023-05-06T06:22:11.040Z,100128.94
2023-05-06T06:25:13.835Z,100128.63
2023-05-06T06:28:17.005Z,100131.06
2023-05-06T06:31:18.857Z,100136.25
2023-05-06T06:34:21.789Z,100132.56
2023-05-06T06:37:23.588Z,100125.63
2023-05-06T06:40:25.422Z,100128.03
2023-05-06T06:43:28.639Z,100129.75
2023-05-06T06:46:30.438Z,100131.59
2023-05-06T06:49:32.628Z,100123.75
2023-05-06T06:52:34.699Z,100125.66
2023-05-06T06:55:36.779Z,100106.13
2023-05-06T06:58:40.186Z,100120.16
2023-05-06T07:01:42.462Z,100117.38
2023-05-06T07:04:44.687Z,100121.41
2023-05-06T07:07:46.621Z,100116.97
2023-05-06T07:10:48.503Z,100116.72
2023-05-06T07:13:51.692Z,100118.56
2023-05-06T07:16:53.525Z,100118.03
2023-05-06T07:19:55.528Z,100122.22
2023-05-06T07:22:57.335Z,100118.91
2023-05-06T07:25:59.639Z,100120.16
2023-05-06T07:29:04.351Z,100123.31
2023-05-06T07:32:06.440Z,100120.06
2023-05-06T07:35:09.548Z,100117.50
2023-05-06T07:38:11.459Z,100118.69
2023-05-06T07:41:13.280Z,100115.31
2023-05-06T07:44:16.871Z,100122.47
2023-05-06T07:47:27.229Z,100118.19
2023-05-06T07:50:29.848Z,100115.66
2023-05-06T07:53:31.734Z,100100.19
2023-05-06T07:56:34.463Z,100114.88
2023-05-06T07:59:37.731Z,100117.38
2023-05-06T08:02:44.637Z,100061.94
2023-05-06T08:05:46.800Z,100079.09
2023-05-06T08:08:49.517Z,100057.63
2023-05-06T08:11:51.486Z,100033.41
2023-05-06T08:14:55.280Z,100033.16
2023-05-06T08:18:02.170Z,100040.81
2023-05-06T08:21:09.119Z,100044.75
2023-05-06T08:24:11.211Z,100055.91
2023-05-06T08:27:13.565Z,100053.84
2023-05-06T08:30:17.038Z,100035.44
2023-05-06T08:33:19.364Z,100113.63
2023-05-06T08:36:22.585Z,100110.81
2023-05-06T08:39:24.463Z,100105.22
2023-05-06T08:42:26.910Z,100110.53
2023-05-06T08:45:30.345Z,100108.72
2023-05-06T08:48:32.374Z,100106.22
2023-05-06T08:51:35.388Z,100097.69
2023-05-06T08:54:38.302Z,100100.59
2023-05-06T08:57:42.557Z,100103.09
2023-05-06T09:00:46.637Z,100092.97
2023-05-06T09:03:49.999Z,100082.63
2023-05-06T09:06:52.454Z,100081.38
2023-05-06T09:09:54.317Z,100075.63
2023-05-06T09:12:57.075Z,100074.97
2023-05-06T09:16:00.766Z,100061.09
2023-05-06T09:19:02.894Z,100050.25
2023-05-06T09:22:05.671Z,100068.59
2023-05-06T09:25:08.270Z,100050.00
2023-05-06T09:28:12.007Z,100045.97
2023-05-06T09:31:16.180Z,100049.19
2023-05-06T09:34:18.329Z,100058.44
2023-05-06T09:37:21.136Z,100044.63
2023-05-06T09:40:26.080Z,100039.22
2023-05-06T09:43:28.589Z,100044.25
2023-05-06T09:46:33.078Z,100043.34
2023-05-06T09:49:35.046Z,100043.72
2023-05-06T09:52:37.653Z,100029.84
2023-05-06T09:55:40.828Z,100035.13
2023-05-06T09:58:43.311Z,100030.59
2023-05-06T10:01:47.344Z,100028.84
2023-05-06T10:04:49.775Z,100015.44
2023-05-06T10:07:54.708Z,100019.91
2023-05-06T10:10:57.299Z,99965.34
2023-05-06T10:14:00.298Z,99977.38
2023-05-06T10:17:06.853Z,99972.44
2023-05-06T10:20:13.340Z,100017.16
2023-05-06T10:23:23.774Z,99987.13
2023-05-06T10:26:29.829Z,100005.81
2023-05-06T10:29:35.985Z,100006.66
2023-05-06T10:32:43.235Z,99997.13
2023-05-06T10:35:53.112Z,99989.94
2023-05-06T10:38:57.268Z,99993.47
2023-05-06T10:41:59.236Z,99984.25
2023-05-06T10:45:06.441Z,99989.78
2023-05-06T10:48:09.783Z,99979.53
2023-05-06T10:51:25.894Z,99983.19
2023-05-06T10:54:27.655Z,99954.66
2023-05-06T10:57:40.911Z,99958.19
2023-05-06T11:00:53.014Z,99969.16
2023-05-06T11:03:56.904Z,99967.19
2023-05-06T11:07:08.016Z,99959.91
2023-05-06T11:10:12.160Z,99951.50
2023-05-06T11:13:22.369Z,99946.94
2023-05-06T11:16:49.693Z,99959.78
2023-05-06T11:20:19.141Z,99961.59
2023-05-06T11:23:21.024Z,99963.38
2023-05-06T11:26:24.593Z,99968.22
2023-05-06T11:29:26.986Z,99947.69
2023-05-06T11:32:29.928Z,99938.81
2023-05-06T11:35:36.713Z,99958.25
2023-05-06T11:38:42.673Z,99965.59
2023-05-06T11:41:45.061Z,99960.91
2023-05-06T11:44:46.880Z,99913.59
2023-05-06T11:47:49.004Z,99967.91
2023-05-06T11:50:52.385Z,99976.75
2023-05-06T11:54:05.148Z,99978.63
2023-05-06T11:57:08.204Z,99974.38
2023-05-06T12:00:12.084Z,99980.19
2023-05-06T12:03:14.731Z,99970.22
2023-05-06T12:06:19.246Z,99984.09
2023-05-06T12:09:24.626Z,99978.19
2023-05-06T12:12:28.177Z,99974.41
2023-05-06T12:15:30.292Z,99977.28
2023-05-06T12:18:33.492Z,99950.56
2023-05-06T12:21:39.495Z,99957.94
2023-05-06T12:24:41.537Z,99964.88
2023-05-06T12:27:43.763Z,99966.41
2023-05-06T12:30:46.531Z,99951.13
2023-05-06T12:33:49.906Z,99959.13
2023-05-06T12:36:54.024Z,99958.75
2023-05-06T12:39:58.723Z,99945.34
2023-05-06T12:43:01.408Z,99957.69
2023-05-06T12:46:05.224Z,99930.63
2023-05-06T12:49:07.104Z,99953.59
2023-05-06T12:52:11.808Z,99962.38
2023-05-06T12:55:13.674Z,99970.00
2023-05-06T12:58:16.142Z,99961.78
2023-05-06T13:01:22.097Z,99963.69
2023-05-06T13:04:24.254Z,99954.28
2023-05-06T13:07:28.247Z,99946.41
2023-05-06T13:10:30.056Z,99952.91
2023-05-06T13:13:31.866Z,99959.16
2023-05-06T13:16:35.385Z,99962.31
2023-05-06T13:19:37.412Z,99962.06
2023-05-06T13:22:53.670Z,99953.78
2023-05-06T13:26:04.189Z,99932.41
2023-05-06T13:29:07.068Z,99959.06
2023-05-06T13:32:09.821Z,99959.28
2023-05-06T13:35:11.836Z,99973.81
2023-05-06T13:38:16.096Z,99965.75
2023-05-06T13:41:17.983Z,99980.22
2023-05-06T13:44:21.724Z,99982.28
2023-05-06T13:47:24.384Z,99923.97
2023-05-06T13:50:26.307Z,99979.59
2023-05-06T13:53:30.183Z,99969.84
2023-05-06T13:56:32.389Z,99923.72
2023-05-06T13:59:34.662Z,99977.63
2023-05-06T14:02:37.480Z,99987.69
2023-05-06T14:05:39.807Z,99974.38
2023-05-06T14:08:43.112Z,99953.13
2023-05-06T14:11:45.660Z,99979.81
2023-05-06T14:14:47.435Z,99981.97
2023-05-06T14:17:49.915Z,99984.47
2023-05-06T14:20:51.677Z,99975.75
2023-05-06T14:23:55.005Z,99972.97
2023-05-06T14:26:56.754Z,99966.91
2023-05-06T14:29:59.595Z,99985.03
2023-05-06T14:33:01.513Z,99952.94
2023-05-06T14:36:03.574Z,99973.78
2023-05-06T14:39:07.636Z,99966.06
2023-05-06T14:42:09.728Z,99965.59
2023-05-06T14:45:12.925Z,99954.44
2023-05-06T14:48:15.613Z,99955.63
2023-05-06T14:51:17.474Z,99939.22
2023-05-06T14:54:21.064Z,99949.44
2023-05-06T14:57:23.993Z,99943.94
2023-05-06T15:00:26.760Z,99932.78
2023-05-06T15:03:28.588Z,99931.13
2023-05-06T15:06:30.553Z,99941.72
2023-05-06T15:09:33.949Z,99920.84
2023-05-06T15:12:37.434Z,99926.38
2023-05-06T15:15:39.574Z,99928.41
2023-05-06T15:18:42.096Z,99888.16
2023-05-06T15:21:44.130Z,99928.41
2023-05-06T15:24:47.899Z,99931.34
2023-05-06T15:27:49.783Z,99917.97
2023-05-06T15:30:52.454Z,99902.16
2023-05-06T15:33:54.325Z,99895.63
2023-05-06T15:36:56.452Z,99907.84
2023-05-06T15:39:59.813Z,99915.81
2023-05-06T15:43:01.725Z,99917.94
2023-05-06T15:46:04.463Z,99924.19
2023-05-06T15:52:11.257Z,99919.03
2023-05-06T15:55:15.321Z,99910.88
2023-05-06T15:58:18.395Z,99919.94
2023-05-06T16:01:23.803Z,99919.59
2023-05-06T16:04:31.948Z,99924.25
2023-05-06T16:07:34.409Z,99905.47
2023-05-06T16:10:37.533Z,99908.38
2023-05-06T16:13:39.587Z,99902.53
2023-05-06T16:16:42.361Z,99898.22
2023-05-06T16:19:44.211Z,99897.38
2023-05-06T16:22:49.863Z,99886.59
2023-05-06T16:25:54.839Z,99917.38
2023-05-06T16:28:56.643Z,99917.59
2023-05-06T16:31:59.356Z,99907.47
2023-05-06T16:35:01.244Z,99912.81
2023-05-06T16:38:03.135Z,99920.53
2023-05-06T16:41:07.139Z,99943.47
2023-05-06T16:44:08.916Z,99928.50
2023-05-06T16:47:11.312Z,99928.13
2023-05-06T16:50:14.123Z,99938.25
2023-05-06T16:53:17.478Z,99939.03
2023-05-06T16:56:20.871Z,99931.75
2023-05-06T16:59:23.657Z,99923.06
2023-05-06T17:02:25.978Z,99916.38
2023-05-06T17:05:28.289Z,99916.50
2023-05-06T17:11:36.589Z,99914.97
2023-05-06T17:14:38.528Z,99921.44
2023-05-06T17:17:41.486Z,99915.41
2023-05-06T17:20:54.398Z,99909.81
2023-05-06T17:23:58.393Z,99898.13
2023-05-06T17:27:02.349Z,99896.69
2023-05-06T17:30:06.718Z,99916.41
2023-05-06T17:33:08.713Z,99912.38
2023-05-06T17:36:12.230Z,99843.38
2023-05-06T17:39:14.510Z,99911.47
2023-05-06T17:42:17.816Z,99884.50
2023-05-06T17:45:20.183Z,99902.25
2023-05-06T17:48:21.982Z,99898.13
2023-05-06T17:51:24.256Z,99904.75
2023-05-06T17:54:26.117Z,99904.41
2023-05-06T17:57:30.558Z,99901.00
2023-05-06T18:00:32.451Z,99900.75
2023-05-06T18:03:34.411Z,99912.13
2023-05-06T18:06:37.098Z,99900.03
2023-05-06T18:09:38.994Z,99910.34
2023-05-06T18:12:45.321Z,99904.09
2023-05-06T18:15:47.278Z,99913.44
2023-05-06T18:18:50.077Z,99919.06
2023-05-06T18:21:51.975Z,99919.34
2023-05-06T18:24:55.334Z,99884.34
2023-05-06T18:27:59.417Z,99922.75
2023-05-06T18:31:01.404Z,99921.47
2023-05-06T18:34:04.079Z,99918.22
2023-05-06T18:37:06.240Z,99863.94
2023-05-06T18:40:09.199Z,99913.84
2023-05-06T18:43:13.295Z,99885.50
2023-05-06T18:46:15.256Z,99914.81
2023-05-06T18:49:18.063Z,99919.16
2023-05-06T18:52:19.980Z,99914.47
2023-05-06T18:55:22.040Z,99915.28
2023-05-06T18:58:25.288Z,99920.75
2023-05-06T19:01:28.260Z,99908.72
2023-05-06T19:04:30.302Z,99927.28
2023-05-06T19:07:32.374Z,99940.06
2023-05-06T19:10:34.496Z,99927.50
2023-05-06T19:13:37.745Z,99922.75
2023-05-06T19:16:40.185Z,99927.88
2023-05-06T19:19:42.182Z,99943.81
2023-05-06T19:22:44.944Z,99939.63
2023-05-06T19:25:46.907Z,99948.59
2023-05-06T19:28:50.167Z,99947.72
2023-05-06T19:31:52.122Z,99951.47
2023-05-06T19:34:54.134Z,99915.81
2023-05-06T19:37:57.031Z,99951.19
2023-05-06T19:40:58.967Z,99964.06
2023-05-06T19:44:02.290Z,99967.38
2023-05-06T19:47:05.012Z,99970.97
2023-05-06T19:50:08.411Z,99974.59
2023-05-06T19:53:11.139Z,99981.38
2023-05-06T19:56:14.399Z,99984.31
2023-05-06T19:59:18.367Z,99977.56
2023-05-06T20:02:20.631Z,99970.06
2023-05-06T20:05:23.293Z,100015.38
2023-05-06T20:08:25.184Z,100015.81
2023-05-06T20:11:28.075Z,100025.31
2023-05-06T20:14:31.426Z,100018.94
2023-05-06T20:17:34.478Z,100015.53
2023-05-06T20:20:39.925Z,100005.91
2023-05-06T20:23:41.785Z,100000.75
2023-05-06T20:26:43.905Z,99987.59
2023-05-06T20:29:47.604Z,99978.09
2023-05-06T20:32:51.894Z,99975.53
2023-05-06T20:35:55.544Z,99984.66
2023-05-06T20:38:57.857Z,99978.13
2023-05-06T20:42:00.044Z,99975.00
2023-05-06T20:45:04.352Z,99915.56
2023-05-06T20:48:06.390Z,99975.19
2023-05-06T20:51:08.655Z,99976.84
2023-05-06T20:54:10.630Z,99971.88
2023-05-06T20:57:13.880Z,99969.84
2023-05-06T21:00:17.758Z,99958.31
2023-05-06T21:03:19.738Z,99969.75
2023-05-06T21:06:22.712Z,99951.84
2023-05-06T21:09:25.013Z,99960.56
2023-05-06T21:12:26.846Z,99948.69
2023-05-06T21:15:30.457Z,99958.28
2023-05-06T21:18:32.380Z,99958.13
2023-05-06T21:21:34.829Z,99933.81
2023-05-06T21:24:36.714Z,99964.00
2023-05-06T21:27:38.576Z,99958.28
2023-05-06T21:30:41.937Z,99957.56
2023-05-06T21:33:43.769Z,99961.69
2023-05-06T21:36:46.564Z,99962.44
2023-05-06T21:39:48.408Z,99948.03
2023-05-06T21:42:50.258Z,99969.03
2023-05-06T21:45:53.957Z,99967.56
2023-05-06T21:48:56.014Z,99968.72
2023-05-06T21:51:58.508Z,99975.88
2023-05-06T21:55:00.589Z,99982.25
2023-05-06T21:58:02.384Z,99951.91
2023-05-06T22:01:06.175Z,99975.97
2023-05-06T22:04:13.078Z,99971.78
2023-05-06T22:07:16.630Z,99977.69
2023-05-06T22:10:18.507Z,99976.75
2023-05-06T22:13:20.929Z,99976.44
2023-05-06T22:16:25.896Z,99968.25
2023-05-06T22:19:28.122Z,99950.19
2023-05-06T22:22:30.468Z,99963.06
2023-05-06T22:25:32.233Z,99968.88
2023-05-06T22:28:34.517Z,99960.66
2023-05-06T22:31:37.751Z,99976.69
2023-05-06T22:34:40.430Z,99966.88
2023-05-06T22:37:42.298Z,99975.53
2023-05-06T22:40:44.195Z,99962.91
2023-05-06T22:43:46.490Z,99976.91
2023-05-06T22:46:49.716Z,99978.28
2023-05-06T22:49:52.398Z,99982.13
2023-05-06T22:52:54.260Z,99977.09
2023-05-06T22:55:56.086Z,99983.69
2023-05-06T22:58:58.364Z,99954.38
2023-05-06T23:02:02.015Z,99977.09
2023-05-06T23:05:05.080Z,99968.88
2023-05-06T23:08:06.967Z,99970.19
2023-05-06T23:11:08.792Z,99973.50
2023-05-06T23:14:10.689Z,99966.22
2023-05-06T23:17:13.934Z,99973.69
2023-05-06T23:20:17.259Z,99972.84
2023-05-06T23:23:19.088Z,99966.41
2023-05-06T23:26:21.368Z,99964.16
2023-05-06T23:29:23.141Z,99973.88
2023-05-06T23:32:26.565Z,99966.53
2023-05-06T23:35:28.505Z,99970.25
2023-05-06T23:38:30.365Z,99969.16
2023-05-06T23:41:32.307Z,99967.00
2023-05-06T23:44:34.083Z,99964.25
2023-05-06T23:47:37.296Z,99966.44
2023-05-06T23:50:39.172Z,99970.59
2023-05-06T23:53:41.502Z,99967.09
2023-05-06T23:56:43.339Z,99962.59
2023-05-06T23:59:45.260Z,99951.13
